WICK current weather conditions

sailwx.info

Wind from 260 at 12 knots

Air temperature 7.0° C
Visibility: greater than 5.4 NM
Dewpoint 4.0° C

Last reported at 2015-Jan-27 15:20 UTC.
Time now 2015-Jan-27 16:57 UTC

Location: N 58°27' W 003°05'.
View on Google Maps.

See reports from other nearby stations

  
Tides and Currents Weather Stations Pressure Air Temp Water Temp Dewpoint Dewpoint Depression Visibility Wind Speed Wind Dir Waves Ship Positions
date/time (UTC)wind fromknots sea level pressurealtimeterstation pressurevisibilityair tempwater tempwave heightnotes
2015-Jan-27 15:20 260 12 5.4 7.0
2015-Jan-27 14:50 260 11 5.4 7.0
2015-Jan-27 14:20 270 16 5.4 8.0
2015-Jan-27 13:50 260 14 5.4 8.0
2015-Jan-27 13:20 260 13 5.4 7.0
2015-Jan-27 12:50 250 14 5.4 7.0
2015-Jan-27 12:20 260 12 gusting 24 5.4 8.0
2015-Jan-27 11:50 270 14 5.4 7.0
2015-Jan-27 11:20 280 20 5.4 7.0
2015-Jan-27 10:50 270 11 5.4 7.0
2015-Jan-27 10:20 270 13 5.4 7.0
2015-Jan-27 09:50 270 14 5.4 7.0
2015-Jan-27 09:20 260 12 5.4 6.0
2015-Jan-27 08:50 270 13 5.4 6.0
2015-Jan-27 08:20 270 12 5.4 6.0
2015-Jan-27 07:50 270 12 5.4 6.0
2015-Jan-27 07:20 270 11 5.4 6.0
2015-Jan-27 06:50 260 10 5.4 6.0
2015-Jan-27 06:20 270 13 5.4 5.0
2015-Jan-27 05:50 260 10 5.4 5.0
2015-Jan-27 05:20 260 11 5.4 5.0
2015-Jan-27 04:50 260 10 5.4 5.0
2015-Jan-27 04:20 260 8 5.4 4.0
2015-Jan-27 03:50 250 8 5.4 4.0
2015-Jan-27 03:20 270 11 5.4 5.0 Light drizzle.
2015-Jan-27 02:50 260 9 5.4 4.0 Light drizzle.
2015-Jan-27 02:20 260 9 5.4 4.0 Light drizzle.
2015-Jan-27 01:50 260 8 5.4 4.0
2015-Jan-27 01:20 270 9 5.4 4.0 Light drizzle.
2015-Jan-27 00:50 260 8 5.4 4.0 Light rain.
2015-Jan-27 00:20 260 7 5.4 4.0
2015-Jan-26 23:50 270 9 5.4 4.0
2015-Jan-26 23:20 270 9 5.4 3.0
2015-Jan-26 22:50 270 12 5.4 3.0
2015-Jan-26 22:20 260 10 5.4 3.0
2015-Jan-26 21:50 270 9 5.4 3.0
2015-Jan-26 21:20 280 10 5.4 3.0
2015-Jan-26 20:50 270 11 5.4 3.0
2015-Jan-26 20:20 280 10 5.4 3.0
2015-Jan-26 19:50 270 7 5.4 2.0 Showers in the vicinity.
2015-Jan-26 19:20 260 6 5.4 2.0 Light rain showers.
2015-Jan-26 18:50 260 5 5.4 2.0
2015-Jan-26 18:20 300 12 5.4 2.0 Showers in the vicinity.
2015-Jan-26 17:50 300 16 5.4 3.0 Showers in the vicinity.
2015-Jan-26 17:20 300 14 5.4 2.0 Showers in the vicinity.
2015-Jan-26 16:50 290 18 4.3 3.0 Light rain showers.
2015-Jan-26 16:20 300 17 5.4 3.0 Showers in the vicinity.
2015-Jan-26 15:50 300 14 5.4 3.0 Showers in the vicinity.
2015-Jan-26 15:20 310 14 5.4 3.0 Light rain showers.
2015-Jan-26 14:50 310 15 5.4 3.0 Showers in the vicinity.
2015-Jan-26 14:20 290 20 5.4 3.0 Showers in the vicinity.
2015-Jan-26 13:50 290 18 5.4 3.0 Showers in the vicinity.
2015-Jan-26 13:20 290 15 5.4 3.0 Showers in the vicinity.
2015-Jan-26 12:50 300 27 5.4 2.0 Light rain showers.
2015-Jan-26 12:20 300 15 5.4 4.0 Showers in the vicinity.
2015-Jan-26 11:50 290 14 5.4 3.0 Showers in the vicinity.
2015-Jan-26 11:20 280 14 5.4 3.0 Showers in the vicinity.
2015-Jan-26 10:50 280 16 5.4 2.0 Showers in the vicinity.
2015-Jan-26 10:20 290 16 5.4 2.0 Showers in the vicinity.
2015-Jan-26 09:50 280 17 5.4 2.0 Showers in the vicinity.
2015-Jan-26 09:20 280 20 5.4 2.0 Showers in the vicinity.
2015-Jan-26 08:50 270 13 5.4 1.0 Showers in the vicinity.
2015-Jan-26 08:20 280 12 5.4 1.0 Showers in the vicinity.
2015-Jan-26 07:50 280 18 3.8 2.0 Rain showers.
2015-Jan-26 07:20 260 6 5.4 2.0 Showers in the vicinity.
2015-Jan-26 06:50 280 16 5.4 2.0 Showers in the vicinity.
2015-Jan-26 06:20 250 11 5.4 3.0
2015-Jan-26 05:50 240 9 5.4 2.0
2015-Jan-26 05:20 250 8 5.4 3.0
2015-Jan-26 04:50 250 8 5.4 2.0
2015-Jan-26 04:20 250 9 5.4 3.0
2015-Jan-26 03:50 270 14 5.4 3.0
2015-Jan-26 03:20 250 9 5.4 3.0
2015-Jan-26 02:50 250 9 5.4 3.0
2015-Jan-26 02:20 250 9 5.4 3.0
2015-Jan-26 01:50 250 11 5.4 3.0
2015-Jan-26 01:20 270 10 5.4 4.0
2015-Jan-26 00:50 260 12 4.9 5.0 Light drizzle.
2015-Jan-26 00:20 240 7 5.4 4.0
2015-Jan-25 23:50 240 7 5.4 5.0
2015-Jan-25 23:20 260 7 5.4 5.0
2015-Jan-25 22:50 260 7 5.4 5.0
2015-Jan-25 22:20 260 8 5.4 5.0
2015-Jan-25 21:50 270 8 5.4 5.0
2015-Jan-25 21:20 270 8 5.4 5.0
2015-Jan-25 20:50 260 8 5.4 5.0
2015-Jan-25 20:20 250 7 5.4 6.0
2015-Jan-25 19:50 240 7 5.4 7.0
2015-Jan-25 19:20 250 7 5.4 6.0
2015-Jan-25 18:50 260 9 5.4 7.0
2015-Jan-25 18:20 280 11 5.4 7.0
2015-Jan-25 17:50 280 12 5.4 7.0
2015-Jan-25 17:20 260 14 5.4 9.0 Light drizzle.
2015-Jan-25 16:50 210 7 5.4 8.0
2015-Jan-25 16:20 210 12 5.4 8.0